sensor_id;sensor_type;location;lat;lon;timestamp;P1;durP1;ratioP1;P2;durP2;ratioP2
9799;SDS011;4939;52.00085300;4.17406100;2024-03-06T00:02:03;41.42;;;13.82;;
9799;SDS011;4939;52.00085300;4.17406100;2024-03-06T00:04:29;39.03;;;14.23;;
9799;SDS011;4939;52.00085300;4.17406100;2024-03-06T00:06:55;39.63;;;14.43;;
9799;SDS011;4939;52.00085300;4.17406100;2024-03-06T00:09:23;39.70;;;14.35;;
9799;SDS011;4939;52.00085300;4.17406100;2024-03-06T00:11:49;37.95;;;13.57;;
9799;SDS011;4939;52.00085300;4.17406100;2024-03-06T00:14:16;37.28;;;14.65;;
9799;SDS011;4939;52.00085300;4.17406100;2024-03-06T00:16:42;42.13;;;13.75;;
9799;SDS011;4939;52.00085300;4.17406100;2024-03-06T00:19:08;37.55;;;14.13;;
9799;SDS011;4939;52.00085300;4.17406100;2024-03-06T00:21:34;40.80;;;14.85;;
9799;SDS011;4939;52.00085300;4.17406100;2024-03-06T00:24:01;41.05;;;14.48;;
9799;SDS011;4939;52.00085300;4.17406100;2024-03-06T00:26:28;40.30;;;13.93;;
9799;SDS011;4939;52.00085300;4.17406100;2024-03-06T00:28:54;42.78;;;14.90;;
9799;SDS011;4939;52.00085300;4.17406100;2024-03-06T00:31:20;41.50;;;14.30;;
9799;SDS011;4939;52.00085300;4.17406100;2024-03-06T00:33:47;39.35;;;14.10;;
9799;SDS011;4939;52.00085300;4.17406100;2024-03-06T00:36:13;43.90;;;14.68;;
9799;SDS011;4939;52.00085300;4.17406100;2024-03-06T00:38:39;43.80;;;15.05;;
9799;SDS011;4939;52.00085300;4.17406100;2024-03-06T00:41:05;41.83;;;14.35;;
9799;SDS011;4939;52.00085300;4.17406100;2024-03-06T00:43:31;43.92;;;14.93;;
9799;SDS011;4939;52.00085300;4.17406100;2024-03-06T00:45:57;39.38;;;13.90;;
9799;SDS011;4939;52.00085300;4.17406100;2024-03-06T00:48:24;42.53;;;15.07;;
9799;SDS011;4939;52.00085300;4.17406100;2024-03-06T00:50:50;41.58;;;15.05;;
9799;SDS011;4939;52.00085300;4.17406100;2024-03-06T00:53:17;40.58;;;14.32;;
9799;SDS011;4939;52.00085300;4.17406100;2024-03-06T00:55:43;42.05;;;15.02;;
9799;SDS011;4939;52.00085300;4.17406100;2024-03-06T00:58:09;40.33;;;14.57;;
9799;SDS011;4939;52.00085300;4.17406100;2024-03-06T01:00:36;42.97;;;15.05;;
9799;SDS011;4939;52.00085300;4.17406100;2024-03-06T01:03:03;43.28;;;15.23;;
9799;SDS011;4939;52.00085300;4.17406100;2024-03-06T01:05:29;38.42;;;13.80;;
9799;SDS011;4939;52.00085300;4.17406100;2024-03-06T01:07:57;37.40;;;14.00;;
9799;SDS011;4939;52.00085300;4.17406100;2024-03-06T01:10:24;42.40;;;13.93;;
9799;SDS011;4939;52.00085300;4.17406100;2024-03-06T01:12:50;39.10;;;13.77;;
9799;SDS011;4939;52.00085300;4.17406100;2024-03-06T01:15:16;46.28;;;15.30;;
9799;SDS011;4939;52.00085300;4.17406100;2024-03-06T01:17:42;40.85;;;14.25;;
9799;SDS011;4939;52.00085300;4.17406100;2024-03-06T01:20:08;39.35;;;13.98;;
9799;SDS011;4939;52.00085300;4.17406100;2024-03-06T01:22:34;42.90;;;15.55;;
9799;SDS011;4939;52.00085300;4.17406100;2024-03-06T01:25:00;40.22;;;14.93;;
9799;SDS011;4939;52.00085300;4.17406100;2024-03-06T01:27:27;42.17;;;14.60;;
9799;SDS011;4939;52.00085300;4.17406100;2024-03-06T01:29:53;45.53;;;14.63;;
9799;SDS011;4939;52.00085300;4.17406100;2024-03-06T01:32:19;46.38;;;15.70;;
9799;SDS011;4939;52.00085300;4.17406100;2024-03-06T01:34:45;44.28;;;14.88;;
9799;SDS011;4939;52.00085300;4.17406100;2024-03-06T01:37:11;42.70;;;14.30;;
9799;SDS011;4939;52.00085300;4.17406100;2024-03-06T01:39:37;44.15;;;14.68;;
9799;SDS011;4939;52.00085300;4.17406100;2024-03-06T01:42:03;47.80;;;15.85;;
9799;SDS011;4939;52.00085300;4.17406100;2024-03-06T01:44:29;44.28;;;14.68;;
9799;SDS011;4939;52.00085300;4.17406100;2024-03-06T01:46:55;44.78;;;15.70;;
9799;SDS011;4939;52.00085300;4.17406100;2024-03-06T01:49:21;42.97;;;14.85;;
9799;SDS011;4939;52.00085300;4.17406100;2024-03-06T01:51:48;43.65;;;15.25;;
9799;SDS011;4939;52.00085300;4.17406100;2024-03-06T01:54:17;43.72;;;14.38;;
9799;SDS011;4939;52.00085300;4.17406100;2024-03-06T01:56:45;45.92;;;15.55;;
9799;SDS011;4939;52.00085300;4.17406100;2024-03-06T01:59:13;43.15;;;14.90;;
9799;SDS011;4939;52.00085300;4.17406100;2024-03-06T02:01:40;47.83;;;14.95;;
9799;SDS011;4939;52.00085300;4.17406100;2024-03-06T02:04:06;44.30;;;14.27;;
9799;SDS011;4939;52.00085300;4.17406100;2024-03-06T02:06:34;49.13;;;15.55;;
9799;SDS011;4939;52.00085300;4.17406100;2024-03-06T02:09:01;47.35;;;14.82;;
9799;SDS011;4939;52.00085300;4.17406100;2024-03-06T02:11:28;45.20;;;14.57;;
9799;SDS011;4939;52.00085300;4.17406100;2024-03-06T02:13:54;44.88;;;14.63;;
9799;SDS011;4939;52.00085300;4.17406100;2024-03-06T02:16:20;46.08;;;14.40;;
9799;SDS011;4939;52.00085300;4.17406100;2024-03-06T02:18:56;46.95;;;15.15;;
9799;SDS011;4939;52.00085300;4.17406100;2024-03-06T02:21:22;39.05;;;13.77;;
9799;SDS011;4939;52.00085300;4.17406100;2024-03-06T02:23:49;41.40;;;13.93;;
9799;SDS011;4939;52.00085300;4.17406100;2024-03-06T02:26:19;42.90;;;15.55;;
9799;SDS011;4939;52.00085300;4.17406100;2024-03-06T02:31:15;41.45;;;14.27;;
9799;SDS011;4939;52.00085300;4.17406100;2024-03-06T02:33:42;47.67;;;15.18;;
9799;SDS011;4939;52.00085300;4.17406100;2024-03-06T02:36:09;41.20;;;14.50;;
9799;SDS011;4939;52.00085300;4.17406100;2024-03-06T02:38:36;38.78;;;14.30;;
9799;SDS011;4939;52.00085300;4.17406100;2024-03-06T02:41:02;43.60;;;15.50;;
9799;SDS011;4939;52.00085300;4.17406100;2024-03-06T02:43:28;42.38;;;14.40;;
9799;SDS011;4939;52.00085300;4.17406100;2024-03-06T02:45:54;43.22;;;14.88;;
9799;SDS011;4939;52.00085300;4.17406100;2024-03-06T02:48:20;41.13;;;14.13;;
9799;SDS011;4939;52.00085300;4.17406100;2024-03-06T02:50:46;38.20;;;13.70;;
9799;SDS011;4939;52.00085300;4.17406100;2024-03-06T02:53:12;41.50;;;14.90;;
9799;SDS011;4939;52.00085300;4.17406100;2024-03-06T02:55:39;38.10;;;14.07;;
9799;SDS011;4939;52.00085300;4.17406100;2024-03-06T02:58:05;39.65;;;14.05;;
9799;SDS011;4939;52.00085300;4.17406100;2024-03-06T03:00:31;46.72;;;15.80;;
9799;SDS011;4939;52.00085300;4.17406100;2024-03-06T03:02:57;42.90;;;14.13;;
9799;SDS011;4939;52.00085300;4.17406100;2024-03-06T03:05:23;41.13;;;14.25;;
9799;SDS011;4939;52.00085300;4.17406100;2024-03-06T03:07:50;41.63;;;14.50;;
9799;SDS011;4939;52.00085300;4.17406100;2024-03-06T03:10:16;38.90;;;14.80;;
9799;SDS011;4939;52.00085300;4.17406100;2024-03-06T03:12:42;42.05;;;14.32;;
9799;SDS011;4939;52.00085300;4.17406100;2024-03-06T03:15:09;42.53;;;14.23;;
9799;SDS011;4939;52.00085300;4.17406100;2024-03-06T03:17:35;44.90;;;14.50;;
9799;SDS011;4939;52.00085300;4.17406100;2024-03-06T03:20:02;42.00;;;14.27;;
9799;SDS011;4939;52.00085300;4.17406100;2024-03-06T03:22:37;41.75;;;15.05;;
9799;SDS011;4939;52.00085300;4.17406100;2024-03-06T03:25:07;43.42;;;14.90;;
9799;SDS011;4939;52.00085300;4.17406100;2024-03-06T03:27:33;47.15;;;16.05;;
9799;SDS011;4939;52.00085300;4.17406100;2024-03-06T03:29:59;42.92;;;15.68;;
9799;SDS011;4939;52.00085300;4.17406100;2024-03-06T03:32:25;46.67;;;16.45;;
9799;SDS011;4939;52.00085300;4.17406100;2024-03-06T03:34:51;44.08;;;15.25;;
9799;SDS011;4939;52.00085300;4.17406100;2024-03-06T03:37:17;45.80;;;15.68;;
9799;SDS011;4939;52.00085300;4.17406100;2024-03-06T03:39:43;45.08;;;15.35;;
9799;SDS011;4939;52.00085300;4.17406100;2024-03-06T03:42:10;48.35;;;16.38;;
9799;SDS011;4939;52.00085300;4.17406100;2024-03-06T03:44:36;46.75;;;16.85;;
9799;SDS011;4939;52.00085300;4.17406100;2024-03-06T03:47:02;47.35;;;17.15;;
9799;SDS011;4939;52.00085300;4.17406100;2024-03-06T03:49:28;46.22;;;15.30;;
9799;SDS011;4939;52.00085300;4.17406100;2024-03-06T03:51:54;40.35;;;15.93;;
9799;SDS011;4939;52.00085300;4.17406100;2024-03-06T03:54:20;45.03;;;16.27;;
9799;SDS011;4939;52.00085300;4.17406100;2024-03-06T03:56:46;48.60;;;17.25;;
9799;SDS011;4939;52.00085300;4.17406100;2024-03-06T03:59:13;46.70;;;16.08;;
9799;SDS011;4939;52.00085300;4.17406100;2024-03-06T04:01:39;48.90;;;17.25;;
9799;SDS011;4939;52.00085300;4.17406100;2024-03-06T04:04:05;47.95;;;17.23;;
9799;SDS011;4939;52.00085300;4.17406100;2024-03-06T04:06:33;52.40;;;17.08;;
9799;SDS011;4939;52.00085300;4.17406100;2024-03-06T04:08:59;51.58;;;18.10;;
9799;SDS011;4939;52.00085300;4.17406100;2024-03-06T04:11:25;58.05;;;19.08;;
9799;SDS011;4939;52.00085300;4.17406100;2024-03-06T04:13:51;53.42;;;18.60;;
9799;SDS011;4939;52.00085300;4.17406100;2024-03-06T04:16:17;53.10;;;18.15;;
9799;SDS011;4939;52.00085300;4.17406100;2024-03-06T04:18:44;51.45;;;18.02;;
9799;SDS011;4939;52.00085300;4.17406100;2024-03-06T04:21:13;52.80;;;18.45;;
9799;SDS011;4939;52.00085300;4.17406100;2024-03-06T04:23:40;56.63;;;18.00;;
9799;SDS011;4939;52.00085300;4.17406100;2024-03-06T04:26:06;59.78;;;19.30;;
9799;SDS011;4939;52.00085300;4.17406100;2024-03-06T04:28:32;55.08;;;18.05;;
9799;SDS011;4939;52.00085300;4.17406100;2024-03-06T04:30:58;57.65;;;19.80;;
9799;SDS011;4939;52.00085300;4.17406100;2024-03-06T04:33:24;58.08;;;19.00;;
9799;SDS011;4939;52.00085300;4.17406100;2024-03-06T04:35:50;55.13;;;19.58;;
9799;SDS011;4939;52.00085300;4.17406100;2024-03-06T04:38:17;55.60;;;18.90;;
9799;SDS011;4939;52.00085300;4.17406100;2024-03-06T04:40:43;57.42;;;20.23;;
9799;SDS011;4939;52.00085300;4.17406100;2024-03-06T04:43:10;64.18;;;19.80;;
9799;SDS011;4939;52.00085300;4.17406100;2024-03-06T04:45:36;62.72;;;21.67;;
9799;SDS011;4939;52.00085300;4.17406100;2024-03-06T04:48:02;62.90;;;20.30;;
9799;SDS011;4939;52.00085300;4.17406100;2024-03-06T04:50:28;68.78;;;20.38;;
9799;SDS011;4939;52.00085300;4.17406100;2024-03-06T04:52:54;62.83;;;20.75;;
9799;SDS011;4939;52.00085300;4.17406100;2024-03-06T04:55:21;62.85;;;21.00;;
9799;SDS011;4939;52.00085300;4.17406100;2024-03-06T04:57:47;64.68;;;20.65;;
9799;SDS011;4939;52.00085300;4.17406100;2024-03-06T05:00:14;64.75;;;22.05;;
9799;SDS011;4939;52.00085300;4.17406100;2024-03-06T05:02:40;57.20;;;20.50;;
9799;SDS011;4939;52.00085300;4.17406100;2024-03-06T05:05:07;62.13;;;21.45;;
9799;SDS011;4939;52.00085300;4.17406100;2024-03-06T05:07:35;65.72;;;21.27;;
9799;SDS011;4939;52.00085300;4.17406100;2024-03-06T05:10:02;60.97;;;20.02;;
9799;SDS011;4939;52.00085300;4.17406100;2024-03-06T05:12:28;70.30;;;22.55;;
9799;SDS011;4939;52.00085300;4.17406100;2024-03-06T05:14:54;65.18;;;21.25;;
9799;SDS011;4939;52.00085300;4.17406100;2024-03-06T05:17:20;64.72;;;20.42;;
9799;SDS011;4939;52.00085300;4.17406100;2024-03-06T05:19:47;67.70;;;21.60;;
9799;SDS011;4939;52.00085300;4.17406100;2024-03-06T05:22:14;64.97;;;21.23;;
9799;SDS011;4939;52.00085300;4.17406100;2024-03-06T05:24:40;64.10;;;21.27;;
9799;SDS011;4939;52.00085300;4.17406100;2024-03-06T05:27:06;67.72;;;22.65;;
9799;SDS011;4939;52.00085300;4.17406100;2024-03-06T05:29:33;65.05;;;22.30;;
9799;SDS011;4939;52.00085300;4.17406100;2024-03-06T05:31:59;68.78;;;21.42;;
9799;SDS011;4939;52.00085300;4.17406100;2024-03-06T05:34:25;71.13;;;21.92;;
9799;SDS011;4939;52.00085300;4.17406100;2024-03-06T05:36:51;68.03;;;23.88;;
9799;SDS011;4939;52.00085300;4.17406100;2024-03-06T05:39:17;71.55;;;22.60;;
9799;SDS011;4939;52.00085300;4.17406100;2024-03-06T05:41:43;72.82;;;23.70;;
9799;SDS011;4939;52.00085300;4.17406100;2024-03-06T05:44:10;66.05;;;21.38;;
9799;SDS011;4939;52.00085300;4.17406100;2024-03-06T05:46:36;70.60;;;22.30;;
9799;SDS011;4939;52.00085300;4.17406100;2024-03-06T05:49:02;63.90;;;21.13;;
9799;SDS011;4939;52.00085300;4.17406100;2024-03-06T05:51:29;66.63;;;22.13;;
9799;SDS011;4939;52.00085300;4.17406100;2024-03-06T05:53:55;71.53;;;22.15;;
9799;SDS011;4939;52.00085300;4.17406100;2024-03-06T05:56:22;69.95;;;22.90;;
9799;SDS011;4939;52.00085300;4.17406100;2024-03-06T05:58:48;69.75;;;22.88;;
9799;SDS011;4939;52.00085300;4.17406100;2024-03-06T06:01:14;66.25;;;22.10;;
9799;SDS011;4939;52.00085300;4.17406100;2024-03-06T06:03:44;73.00;;;23.75;;
9799;SDS011;4939;52.00085300;4.17406100;2024-03-06T06:06:10;76.68;;;24.20;;
9799;SDS011;4939;52.00085300;4.17406100;2024-03-06T06:08:36;72.38;;;24.52;;
9799;SDS011;4939;52.00085300;4.17406100;2024-03-06T06:11:02;72.60;;;22.92;;
9799;SDS011;4939;52.00085300;4.17406100;2024-03-06T06:13:28;83.88;;;25.67;;
9799;SDS011;4939;52.00085300;4.17406100;2024-03-06T06:15:55;73.03;;;24.70;;
9799;SDS011;4939;52.00085300;4.17406100;2024-03-06T06:18:23;74.32;;;24.15;;
9799;SDS011;4939;52.00085300;4.17406100;2024-03-06T06:20:49;77.65;;;24.25;;
9799;SDS011;4939;52.00085300;4.17406100;2024-03-06T06:23:16;76.20;;;24.60;;
9799;SDS011;4939;52.00085300;4.17406100;2024-03-06T06:25:42;69.97;;;22.27;;
9799;SDS011;4939;52.00085300;4.17406100;2024-03-06T06:28:08;71.57;;;23.42;;
9799;SDS011;4939;52.00085300;4.17406100;2024-03-06T06:30:35;70.57;;;23.75;;
9799;SDS011;4939;52.00085300;4.17406100;2024-03-06T06:33:01;68.22;;;22.00;;
9799;SDS011;4939;52.00085300;4.17406100;2024-03-06T06:35:27;67.18;;;22.63;;
9799;SDS011;4939;52.00085300;4.17406100;2024-03-06T06:37:54;73.72;;;22.85;;
9799;SDS011;4939;52.00085300;4.17406100;2024-03-06T06:40:20;74.90;;;24.10;;
9799;SDS011;4939;52.00085300;4.17406100;2024-03-06T06:42:47;75.50;;;24.80;;
9799;SDS011;4939;52.00085300;4.17406100;2024-03-06T06:45:21;75.68;;;24.77;;
9799;SDS011;4939;52.00085300;4.17406100;2024-03-06T06:47:47;76.80;;;25.38;;
9799;SDS011;4939;52.00085300;4.17406100;2024-03-06T06:50:14;75.10;;;24.58;;
9799;SDS011;4939;52.00085300;4.17406100;2024-03-06T06:52:40;83.55;;;27.25;;
9799;SDS011;4939;52.00085300;4.17406100;2024-03-06T06:55:07;93.05;;;28.73;;
9799;SDS011;4939;52.00085300;4.17406100;2024-03-06T06:57:36;88.50;;;27.13;;
9799;SDS011;4939;52.00085300;4.17406100;2024-03-06T07:00:03;106.22;;;32.08;;
9799;SDS011;4939;52.00085300;4.17406100;2024-03-06T07:02:45;157.02;;;33.63;;
9799;SDS011;4939;52.00085300;4.17406100;2024-03-06T07:05:11;218.85;;;35.60;;
9799;SDS011;4939;52.00085300;4.17406100;2024-03-06T07:07:37;211.55;;;37.17;;
9799;SDS011;4939;52.00085300;4.17406100;2024-03-06T07:10:04;176.10;;;34.70;;
9799;SDS011;4939;52.00085300;4.17406100;2024-03-06T07:12:31;156.77;;;34.28;;
9799;SDS011;4939;52.00085300;4.17406100;2024-03-06T07:14:57;108.05;;;33.03;;
9799;SDS011;4939;52.00085300;4.17406100;2024-03-06T07:17:24;98.88;;;34.53;;
9799;SDS011;4939;52.00085300;4.17406100;2024-03-06T07:19:50;94.88;;;33.13;;
9799;SDS011;4939;52.00085300;4.17406100;2024-03-06T07:22:17;96.93;;;33.70;;
9799;SDS011;4939;52.00085300;4.17406100;2024-03-06T07:24:43;96.45;;;32.45;;
9799;SDS011;4939;52.00085300;4.17406100;2024-03-06T07:27:09;95.57;;;33.65;;
9799;SDS011;4939;52.00085300;4.17406100;2024-03-06T07:29:36;93.70;;;32.90;;
9799;SDS011;4939;52.00085300;4.17406100;2024-03-06T07:32:02;92.15;;;33.58;;
9799;SDS011;4939;52.00085300;4.17406100;2024-03-06T07:34:30;97.13;;;33.58;;
9799;SDS011;4939;52.00085300;4.17406100;2024-03-06T07:36:56;95.13;;;34.10;;
9799;SDS011;4939;52.00085300;4.17406100;2024-03-06T07:39:24;98.15;;;34.58;;
9799;SDS011;4939;52.00085300;4.17406100;2024-03-06T07:41:50;90.55;;;35.25;;
9799;SDS011;4939;52.00085300;4.17406100;2024-03-06T07:44:17;94.05;;;34.13;;
9799;SDS011;4939;52.00085300;4.17406100;2024-03-06T07:46:43;93.10;;;33.80;;
9799;SDS011;4939;52.00085300;4.17406100;2024-03-06T07:49:09;93.00;;;34.85;;
9799;SDS011;4939;52.00085300;4.17406100;2024-03-06T07:51:35;97.95;;;35.17;;
9799;SDS011;4939;52.00085300;4.17406100;2024-03-06T07:54:01;93.93;;;35.10;;
9799;SDS011;4939;52.00085300;4.17406100;2024-03-06T07:56:29;96.22;;;35.85;;
9799;SDS011;4939;52.00085300;4.17406100;2024-03-06T07:58:55;93.70;;;35.38;;
9799;SDS011;4939;52.00085300;4.17406100;2024-03-06T08:01:21;87.65;;;33.88;;
9799;SDS011;4939;52.00085300;4.17406100;2024-03-06T08:03:48;92.80;;;34.70;;
9799;SDS011;4939;52.00085300;4.17406100;2024-03-06T08:06:14;92.30;;;35.47;;
9799;SDS011;4939;52.00085300;4.17406100;2024-03-06T08:08:43;91.05;;;36.33;;
9799;SDS011;4939;52.00085300;4.17406100;2024-03-06T08:11:12;87.68;;;34.70;;
9799;SDS011;4939;52.00085300;4.17406100;2024-03-06T08:13:39;88.07;;;36.20;;
9799;SDS011;4939;52.00085300;4.17406100;2024-03-06T08:16:05;86.22;;;34.08;;
9799;SDS011;4939;52.00085300;4.17406100;2024-03-06T08:18:32;83.70;;;32.80;;
9799;SDS011;4939;52.00085300;4.17406100;2024-03-06T08:20:58;84.60;;;33.60;;
9799;SDS011;4939;52.00085300;4.17406100;2024-03-06T08:23:24;73.32;;;30.15;;
9799;SDS011;4939;52.00085300;4.17406100;2024-03-06T08:25:51;80.30;;;31.73;;
9799;SDS011;4939;52.00085300;4.17406100;2024-03-06T08:28:17;83.28;;;32.55;;
9799;SDS011;4939;52.00085300;4.17406100;2024-03-06T08:30:43;84.22;;;31.85;;
9799;SDS011;4939;52.00085300;4.17406100;2024-03-06T08:33:10;119.22;;;34.05;;
9799;SDS011;4939;52.00085300;4.17406100;2024-03-06T08:35:36;86.28;;;34.00;;
9799;SDS011;4939;52.00085300;4.17406100;2024-03-06T08:38:02;95.53;;;32.88;;
9799;SDS011;4939;52.00085300;4.17406100;2024-03-06T08:40:29;91.68;;;32.47;;
9799;SDS011;4939;52.00085300;4.17406100;2024-03-06T08:42:55;99.13;;;33.50;;
9799;SDS011;4939;52.00085300;4.17406100;2024-03-06T08:45:21;86.57;;;31.70;;
9799;SDS011;4939;52.00085300;4.17406100;2024-03-06T08:47:50;91.45;;;32.10;;
9799;SDS011;4939;52.00085300;4.17406100;2024-03-06T08:50:19;98.13;;;33.78;;
9799;SDS011;4939;52.00085300;4.17406100;2024-03-06T08:52:45;101.07;;;33.28;;
9799;SDS011;4939;52.00085300;4.17406100;2024-03-06T08:55:11;87.85;;;33.10;;
9799;SDS011;4939;52.00085300;4.17406100;2024-03-06T08:57:37;96.72;;;34.03;;
9799;SDS011;4939;52.00085300;4.17406100;2024-03-06T09:00:04;86.78;;;33.03;;
9799;SDS011;4939;52.00085300;4.17406100;2024-03-06T09:02:37;90.65;;;34.28;;
9799;SDS011;4939;52.00085300;4.17406100;2024-03-06T09:05:04;92.80;;;33.75;;
9799;SDS011;4939;52.00085300;4.17406100;2024-03-06T09:07:31;93.45;;;36.15;;
9799;SDS011;4939;52.00085300;4.17406100;2024-03-06T09:10:03;88.68;;;35.03;;
9799;SDS011;4939;52.00085300;4.17406100;2024-03-06T09:12:30;89.20;;;34.97;;
9799;SDS011;4939;52.00085300;4.17406100;2024-03-06T09:14:56;88.85;;;35.50;;
9799;SDS011;4939;52.00085300;4.17406100;2024-03-06T09:17:22;92.68;;;35.85;;
9799;SDS011;4939;52.00085300;4.17406100;2024-03-06T09:19:49;86.60;;;36.17;;
9799;SDS011;4939;52.00085300;4.17406100;2024-03-06T09:22:15;89.53;;;35.65;;
9799;SDS011;4939;52.00085300;4.17406100;2024-03-06T09:24:42;80.72;;;34.03;;
9799;SDS011;4939;52.00085300;4.17406100;2024-03-06T09:27:08;75.70;;;32.05;;
9799;SDS011;4939;52.00085300;4.17406100;2024-03-06T09:29:34;74.10;;;32.45;;
9799;SDS011;4939;52.00085300;4.17406100;2024-03-06T09:32:01;64.72;;;29.60;;
9799;SDS011;4939;52.00085300;4.17406100;2024-03-06T09:34:27;65.63;;;27.80;;
9799;SDS011;4939;52.00085300;4.17406100;2024-03-06T09:36:53;61.65;;;27.73;;
9799;SDS011;4939;52.00085300;4.17406100;2024-03-06T09:39:19;58.80;;;27.80;;
9799;SDS011;4939;52.00085300;4.17406100;2024-03-06T09:41:48;55.40;;;26.77;;
9799;SDS011;4939;52.00085300;4.17406100;2024-03-06T09:44:17;50.67;;;23.90;;
9799;SDS011;4939;52.00085300;4.17406100;2024-03-06T09:46:44;53.80;;;25.08;;
9799;SDS011;4939;52.00085300;4.17406100;2024-03-06T09:49:11;51.08;;;25.55;;
9799;SDS011;4939;52.00085300;4.17406100;2024-03-06T09:51:40;50.50;;;24.00;;
9799;SDS011;4939;52.00085300;4.17406100;2024-03-06T09:54:11;43.70;;;22.95;;
9799;SDS011;4939;52.00085300;4.17406100;2024-03-06T09:56:40;44.40;;;21.35;;
9799;SDS011;4939;52.00085300;4.17406100;2024-03-06T09:59:10;38.15;;;20.75;;
9799;SDS011;4939;52.00085300;4.17406100;2024-03-06T10:01:39;42.25;;;21.63;;
9799;SDS011;4939;52.00085300;4.17406100;2024-03-06T10:04:21;45.58;;;22.48;;
9799;SDS011;4939;52.00085300;4.17406100;2024-03-06T10:06:49;41.15;;;21.15;;
9799;SDS011;4939;52.00085300;4.17406100;2024-03-06T10:09:19;40.78;;;20.88;;
9799;SDS011;4939;52.00085300;4.17406100;2024-03-06T10:11:44;32.25;;;17.17;;
9799;SDS011;4939;52.00085300;4.17406100;2024-03-06T10:14:11;32.88;;;16.83;;
9799;SDS011;4939;52.00085300;4.17406100;2024-03-06T10:16:37;34.17;;;17.08;;
9799;SDS011;4939;52.00085300;4.17406100;2024-03-06T10:19:16;29.60;;;14.82;;
9799;SDS011;4939;52.00085300;4.17406100;2024-03-06T10:21:43;28.10;;;14.40;;
9799;SDS011;4939;52.00085300;4.17406100;2024-03-06T10:24:16;29.48;;;14.60;;
9799;SDS011;4939;52.00085300;4.17406100;2024-03-06T10:29:16;28.65;;;14.85;;
9799;SDS011;4939;52.00085300;4.17406100;2024-03-06T10:31:53;29.52;;;15.02;;
9799;SDS011;4939;52.00085300;4.17406100;2024-03-06T10:34:20;29.50;;;15.98;;
9799;SDS011;4939;52.00085300;4.17406100;2024-03-06T10:36:56;29.45;;;16.33;;
9799;SDS011;4939;52.00085300;4.17406100;2024-03-06T10:39:23;28.42;;;13.95;;
9799;SDS011;4939;52.00085300;4.17406100;2024-03-06T10:41:54;26.77;;;13.73;;
9799;SDS011;4939;52.00085300;4.17406100;2024-03-06T10:44:22;26.92;;;12.63;;
9799;SDS011;4939;52.00085300;4.17406100;2024-03-06T10:46:58;24.40;;;12.55;;
9799;SDS011;4939;52.00085300;4.17406100;2024-03-06T10:49:26;23.40;;;11.93;;
9799;SDS011;4939;52.00085300;4.17406100;2024-03-06T10:52:02;25.65;;;12.82;;
9799;SDS011;4939;52.00085300;4.17406100;2024-03-06T10:54:32;20.52;;;11.70;;
9799;SDS011;4939;52.00085300;4.17406100;2024-03-06T10:57:00;21.65;;;10.93;;
9799;SDS011;4939;52.00085300;4.17406100;2024-03-06T10:59:27;19.70;;;11.15;;
9799;SDS011;4939;52.00085300;4.17406100;2024-03-06T11:01:57;19.60;;;11.18;;
9799;SDS011;4939;52.00085300;4.17406100;2024-03-06T11:04:29;22.13;;;11.20;;
9799;SDS011;4939;52.00085300;4.17406100;2024-03-06T11:06:59;20.08;;;11.25;;
9799;SDS011;4939;52.00085300;4.17406100;2024-03-06T11:09:26;21.70;;;11.57;;
9799;SDS011;4939;52.00085300;4.17406100;2024-03-06T11:11:53;22.65;;;11.98;;
9799;SDS011;4939;52.00085300;4.17406100;2024-03-06T11:14:23;25.27;;;12.85;;
9799;SDS011;4939;52.00085300;4.17406100;2024-03-06T11:19:27;24.45;;;13.60;;
9799;SDS011;4939;52.00085300;4.17406100;2024-03-06T11:21:53;26.95;;;14.75;;
9799;SDS011;4939;52.00085300;4.17406100;2024-03-06T11:24:20;23.95;;;13.52;;
9799;SDS011;4939;52.00085300;4.17406100;2024-03-06T11:29:18;23.25;;;13.32;;
9799;SDS011;4939;52.00085300;4.17406100;2024-03-06T11:32:00;23.45;;;12.52;;
9799;SDS011;4939;52.00085300;4.17406100;2024-03-06T11:34:28;18.77;;;10.98;;
9799;SDS011;4939;52.00085300;4.17406100;2024-03-06T11:36:59;27.13;;;11.57;;
9799;SDS011;4939;52.00085300;4.17406100;2024-03-06T11:39:32;24.02;;;12.45;;
9799;SDS011;4939;52.00085300;4.17406100;2024-03-06T11:41:59;27.10;;;13.50;;
9799;SDS011;4939;52.00085300;4.17406100;2024-03-06T11:44:26;25.10;;;13.38;;
9799;SDS011;4939;52.00085300;4.17406100;2024-03-06T11:46:57;26.70;;;14.40;;
9799;SDS011;4939;52.00085300;4.17406100;2024-03-06T11:49:25;32.60;;;15.13;;
9799;SDS011;4939;52.00085300;4.17406100;2024-03-06T11:51:58;27.98;;;14.52;;
9799;SDS011;4939;52.00085300;4.17406100;2024-03-06T11:54:33;29.17;;;15.05;;
9799;SDS011;4939;52.00085300;4.17406100;2024-03-06T11:57:00;27.75;;;14.55;;
9799;SDS011;4939;52.00085300;4.17406100;2024-03-06T11:59:30;28.60;;;14.88;;
9799;SDS011;4939;52.00085300;4.17406100;2024-03-06T12:02:01;29.77;;;14.57;;
9799;SDS011;4939;52.00085300;4.17406100;2024-03-06T12:04:32;30.58;;;14.82;;
9799;SDS011;4939;52.00085300;4.17406100;2024-03-06T12:07:03;29.60;;;14.93;;
9799;SDS011;4939;52.00085300;4.17406100;2024-03-06T12:09:35;28.25;;;14.70;;
9799;SDS011;4939;52.00085300;4.17406100;2024-03-06T12:12:07;29.05;;;15.02;;
9799;SDS011;4939;52.00085300;4.17406100;2024-03-06T12:14:34;26.55;;;14.15;;
9799;SDS011;4939;52.00085300;4.17406100;2024-03-06T12:17:01;29.65;;;14.85;;
9799;SDS011;4939;52.00085300;4.17406100;2024-03-06T12:19:32;27.02;;;13.80;;
9799;SDS011;4939;52.00085300;4.17406100;2024-03-06T12:21:59;31.02;;;15.30;;
9799;SDS011;4939;52.00085300;4.17406100;2024-03-06T12:24:32;29.42;;;15.18;;
9799;SDS011;4939;52.00085300;4.17406100;2024-03-06T12:27:01;30.58;;;14.52;;
9799;SDS011;4939;52.00085300;4.17406100;2024-03-06T12:29:29;29.38;;;14.48;;
9799;SDS011;4939;52.00085300;4.17406100;2024-03-06T12:31:57;28.52;;;15.30;;
9799;SDS011;4939;52.00085300;4.17406100;2024-03-06T12:34:23;27.48;;;14.23;;
9799;SDS011;4939;52.00085300;4.17406100;2024-03-06T12:36:49;30.77;;;14.90;;
9799;SDS011;4939;52.00085300;4.17406100;2024-03-06T12:39:16;22.10;;;12.32;;
9799;SDS011;4939;52.00085300;4.17406100;2024-03-06T12:41:46;27.80;;;13.70;;
9799;SDS011;4939;52.00085300;4.17406100;2024-03-06T12:44:12;19.13;;;10.32;;
9799;SDS011;4939;52.00085300;4.17406100;2024-03-06T12:46:40;22.02;;;11.70;;
9799;SDS011;4939;52.00085300;4.17406100;2024-03-06T12:49:06;20.48;;;11.43;;
9799;SDS011;4939;52.00085300;4.17406100;2024-03-06T12:51:32;26.50;;;13.07;;
9799;SDS011;4939;52.00085300;4.17406100;2024-03-06T12:53:58;28.52;;;14.30;;
9799;SDS011;4939;52.00085300;4.17406100;2024-03-06T12:56:24;35.00;;;17.77;;
9799;SDS011;4939;52.00085300;4.17406100;2024-03-06T12:58:55;36.35;;;18.77;;
9799;SDS011;4939;52.00085300;4.17406100;2024-03-06T13:01:21;37.97;;;18.73;;